Airfield :
LOGIN :

Register | Disclaimer

   EN    FR    IT 

 










Legend :    VFR   Marginal VFR   IFR   Intensive IFR   Very Intensive IFR
Visi :
Ceiling :
>= 8 km
>= 3000ft
5 to 8 km
1000 to 3000 ft
1500m to 5 km
500 to 1000 ft
800 to 1500m
200 to 500 ft
< 800m
< 200 ft
Symbols :   Thunderstorms  Fog  Heavy snow  Heavy precipitations  Wind > 20 kt
SIGMETs :     Misc.  Thunderstorms  Icing  Turbulence  Mountain Waves  Volcanic Ashes






- Airport Elevation : 408 ft
- IATA code : FKB


EDSB - Karlsruhe Baden Baden

CURRENT METAR :
  • 220850Z 22007KT 9999 FEW018 SCT052 21/17 Q1015

EXPIRED METARs :
  • 220820Z 21007KT 9999 FEW029 19/17 Q1015
  • 220750Z 22006KT 190V260 9999 FEW026 BKN063 18/17 Q1015 RERA
  • 220720Z 22009KT 190V250 8000 RA SCT045 BKN052 18/15 Q1015
  • 220650Z 21006KT 9999 SCT039 18/16 Q1015
  • 220620Z VRB02KT 9999 VCSH BKN039 18/16 Q1015
  • 220550Z 22002KT 9999 BKN035 BKN045 16/15 Q1015
  • 220520Z 21003KT 9999 VCSH FEW048 SCT082TCU 16/15 Q1016
  • 220450Z 20004KT CAVOK 15/15 Q1016
  • 220420Z 22006KT CAVOK 15/15 Q1015

TAF TAF EDSB
Valid from the 22 at 06:00 until the 23 at 06:00 UTC


220500Z 2206/2306 21007KT CAVOK
TEMPO 2206/2217 SHRA BKN030CB
BECMG 2219/2223 VRB03KT
TEMPO 2302/2305 1200 BCFG



MET'MAP, your aeronautical weather chart ! - Copyright ORBIFLY December 2007 - Disclaimer

ORBIFLY MET'MAP TEAM :

Programming & Development : Alexandra Zaïnal
Original concept : Baudouin d'Aumeries
Technical & hardware support : Manuel Goepfert
Assistance : Marc-Olivier Méhu




SOURCES & CREDITS :

   NOAA